Archival Weather

John F Kennedy Intl

New York, New York (KJFK)

Report from: Thursday, September 21, 2023 1:51 AM EDT
Current time: Sunday, February 25, 2024 5:16 PM EST

Current weather – Weather history – Daily summaries
Weather forecast

Temperature16.1°C (61.0°F)
Dew point11.1°C (52.0°F)
Winds 7 kts (3.6 m/s, 8.1 mph) North (10°)
Visibility10 mi. (16.1 km)
Clouds Few clouds 25,000 ft. (7,620 m)
Altimeter30.19 in.Hg (1022 mB)
Relative humidity72 %
Density altitude8 ft. (2 m)
Sea-level pressure102.2 kPa (1022 mB, 30.19 in.Hg)
Max temp last 6 hours21.7°C (71.1°F)
Min temp last 6 hours16.1°C (61.0°F)
Remarks System requires maintenance
Automated weather observing station with precipitation discriminator
Pressure rising more slowly
Flight conditions Visual Meteorological Conditions
Raw dataKJFK 210551Z 01007KT 10SM FEW250 16/11 A3019 RMK AO2 SLP224 T01610111 10217 20161 51008 $
An error has occurred. This application may no longer respond until reloaded. Reload 🗙